Mid Ohio Valley Regional Airport Parkersburg US
ICAO: KPKB
IATA: PKB
Category: Medium
Scheduled Services: Yes

Elevation: 858 ft
TransAlt. 18000 ft.

Airport Communications:
ATIS:124.35
INDIANAPOLIS CNTR:125.55
CTAF:123.7
GND:121.7
PARKERSBURG TWR:123.7
UNICOM:122.95

KPKB Zoom In..

Runways:

(A) RW 03 length 7240 ft width 150 ft
ILS 110.70 / hdg 29

(B) RW 10 length 4002 ft width 150 ft
---- / hdg 102

(C) RW 21 length 7240 ft width 150 ft
---- / hdg 209

(D) RW 28 length 4002 ft width 150 ft
---- / hdg 282

Location; KPKB
Day. 23 / Time. 14.53 Zulu
* Altimeter: 29.77
* Temperature: 07° c. 44.6°f.
* Wind from: 240° Speed 11 kn with Gusts up to 19 kn.
Dewpoint: -02° c.
Visibility: 10 Statute Miles.
Clouds: Overcast 5000 ft.

KPKB 231453Z 24011G19KT 10SM OVC050 07/M02 A2977 RMK AO2 SLP080 T00721017 53018


Wind From 240°
Speed 11 kn.

YouTube Music Video
 
jpsmedia.com for Web Design  worldairports.se 2018   terms of use